Etusivu
METAR-TAF:

METAR-TAF

Lentoasemat :

St. Anthony, Newfoundland ja Labrador, Kanada

Leveyspiiri: 51-24N, Pituuspiiri: 056-05W, korkeus merenpinnasta: 28 m

Tämänhetkinen sää

Tämä raportti tehtiin 1 tunti ja 7 minuuttia sitten, kello 03.00 UTC
Tuuli 11 kn lännestä puuskistuen 18 kn:hen
Lämpötila -19°C
Kosteus 64%
Ilmanpaine 1014 hPa
Näkyvyys: 14.5 km
selkeää

METAR: CYAY 190300Z AUTO 28011G18KT 9SM CLR M19/M24 A2994 RMK SLP143

Aika: 00:37 (04:07 UTC)

Sääennuste

Tämä raportti tehtiin 2 tuntia ja 29 minuuttia sitten, kello 01.38 UTC
Ennuste voimassa 19. päivästä klo 02 UTC - 19. päivään klo 14 UTC
Tuuli 15 kn lännestä puuskistuen 25 kn:hen
Näkyvyys: 10 km
selkeää
From 19. päivästä klo 0600 UTC
Tuuli 12 kn lännestä
Näkyvyys: 10 km
Muutamia pilviä 4000 ft:n korkeudessa

TAF: CYAY 190138Z 1902/1914 27015G25KT P6SM SKC FM190600 26012KT P6SM FEW040 RMK FCST BASED ON AUTO OBS. NXT FCST BY 190800Z

Säähavainnot ja -ennusteet yli 4000 lentoasemalta (METAR- ja TAF-raportit).

Käytössä olevat sääasemat on merkitty karttaan keltaisilla ja punaisilla pisteillä.

Aseta hiiri pisteen päälle nähdäksesi sääaseman nimen.

Klikkaa sitten nähdäksesi säähavainnot ja -ennusteet.

Kartan vaihtaminen: klikkaa mustalla rastilla varustettuja vihreitä pisteitä, niin voit zoomata sisään; viivalla varustettua vihreää pistettä, niin voit zoomata ulos tai vihreitä nuolia, niin pääset viereisille kartoille.


METAR-TAF: